Terminal Aerodrome Forecast
Issued by NWS

Home | Current Version | Previous Version | Text Only | Print | Product List | Glossary On
Versions: 1 2 3 4 5 6 7 8 9 10 11 12 13 14 15 16 17 18 19 20 21 22
601
FTUS41 KPBZ 102204 AAA
TAFFKL
TAF AMD
KFKL 102204Z 1022/1118 30010G20KT 1SM -SHSN OVC008
      TEMPO 1022/1024 1/4SM +SHSN OVC004
     FM111200 30010G20KT 2SM -SHSN OVC010
      AMD LTD TO CLD VIS AND WIND=

USA.gov is the U.S. government's official web portal to all federal, state and local government web resources and services.